Time;durP1;ratioP1;P1;durP2;ratioP2;P2;SDS_P1;SDS_P2;PMS_P1;PMS_P2;Temp;Humidity;BMP_temperature;BMP_pressure;BME280_temperature;BME280_humidity;BME280_pressure;Samples;Min_cycle;Max_cycle;Signal;HPM_P1;HPM_P2
2022/08/05 00:01:58;;;;;;;5.38;1.40;;;12.30;99.90;;;;;;4965736;28;20039;-92
2022/08/05 00:04:25;;;;;;;11.95;2.38;;;12.30;99.90;;;;;;4996789;28;20034;-94
2022/08/05 00:06:51;;;;;;;5.68;1.30;;;12.30;99.90;;;;;;4980432;28;20026;-93
2022/08/05 00:09:16;;;;;;;11.63;1.20;;;12.30;99.90;;;;;;4980269;28;20543;-92
2022/08/05 00:11:42;;;;;;;4.68;1.25;;;12.30;99.90;;;;;;4997925;28;20488;-93
2022/08/05 00:14:08;;;;;;;5.55;1.10;;;12.40;99.90;;;;;;4986235;28;20015;-92
2022/08/05 00:16:33;;;;;;;5.65;1.30;;;12.40;99.90;;;;;;4993698;28;20038;-93
2022/08/05 00:18:59;;;;;;;3.03;1.10;;;12.40;99.90;;;;;;4980525;28;20037;-93
2022/08/05 00:21:25;;;;;;;8.85;1.25;;;12.50;99.90;;;;;;4980568;28;20035;-94
2022/08/05 00:23:50;;;;;;;5.55;1.70;;;12.40;99.90;;;;;;4997174;28;20495;-92
2022/08/05 00:26:16;;;;;;;7.50;1.35;;;12.50;99.90;;;;;;4979399;28;20034;-94
2022/08/05 00:28:42;;;;;;;11.95;1.33;;;12.50;99.90;;;;;;4979245;28;20117;-95
2022/08/05 00:31:08;;;;;;;12.38;1.30;;;12.50;99.90;;;;;;4983114;28;20026;-92
2022/08/05 00:33:34;;;;;;;5.68;1.15;;;12.40;99.90;;;;;;4981163;28;20092;-96
2022/08/05 00:36:00;;;;;;;11.98;1.38;;;12.40;99.90;;;;;;4995861;28;20093;-94
2022/08/05 00:38:26;;;;;;;6.30;1.00;;;12.40;99.90;;;;;;4978936;28;20033;-92
2022/08/05 00:40:54;;;;;;;5.57;1.10;;;12.40;99.90;;;;;;4979131;28;20022;-92
2022/08/05 00:43:23;;;;;;;7.03;0.95;;;12.40;99.90;;;;;;4978989;28;20034;-94
2022/08/05 00:45:49;;;;;;;10.57;1.13;;;12.40;99.90;;;;;;4978629;28;20030;-93
2022/08/05 00:48:18;;;;;;;8.75;1.20;;;12.40;99.90;;;;;;4979165;28;20030;-93
2022/08/05 00:50:46;;;;;;;4.82;1.48;;;12.40;99.90;;;;;;4978813;28;20081;-94
2022/08/05 00:53:15;;;;;;;5.63;1.02;;;12.40;99.90;;;;;;4978642;28;20233;-94
2022/08/05 00:55:41;;;;;;;8.10;1.05;;;12.40;99.90;;;;;;4978128;28;20022;-93
2022/08/05 00:58:07;;;;;;;3.97;0.68;;;12.40;99.90;;;;;;4962581;28;20058;-95
2022/08/05 01:00:33;;;;;;;4.97;1.42;;;12.40;99.90;;;;;;4978263;28;20033;-93
2022/08/05 01:02:58;;;;;;;7.05;1.10;;;12.40;99.90;;;;;;4978309;28;20027;-92
2022/08/05 01:05:25;;;;;;;5.63;1.00;;;12.40;99.90;;;;;;4977974;28;20104;-93
2022/08/05 01:07:51;;;;;;;9.32;1.60;;;12.40;99.90;;;;;;4978037;28;20096;-93
2022/08/05 01:10:20;;;;;;;5.50;0.90;;;12.40;99.90;;;;;;4978810;28;20022;-94
2022/08/05 01:12:54;;;;;;;6.05;0.90;;;12.40;99.90;;;;;;4981431;28;20027;-93
2022/08/05 01:15:23;;;;;;;6.10;1.10;;;12.40;99.90;;;;;;4989976;28;20045;-90
2022/08/05 01:17:54;;;;;;;6.60;1.23;;;12.40;99.90;;;;;;5001065;28;20030;-92
2022/08/05 01:20:23;;;;;;;;;;;12.40;99.90;;;;;;5008989;28;20022;-92
2022/08/05 01:23:01;;;;;;;6.55;1.55;;;12.40;99.90;;;;;;4982905;28;19909;-93
2022/08/05 01:25:36;;;;;;;8.18;1.08;;;12.30;99.90;;;;;;4999669;28;20026;-92
2022/08/05 01:28:25;;;;;;;5.85;1.10;;;12.40;99.90;;;;;;4981825;28;20062;-93
2022/08/05 01:31:09;;;;;;;5.68;1.00;;;12.40;99.90;;;;;;4981952;28;20034;-92
2022/08/05 01:33:44;;;;;;;5.88;0.80;;;12.40;99.90;;;;;;4998754;28;20356;-91
2022/08/05 01:36:14;;;;;;;16.70;2.50;;;12.40;99.90;;;;;;4998845;28;20403;-95
2022/08/05 01:38:41;;;;;;;;;;;12.40;99.90;;;;;;4999521;28;20030;-94
2022/08/05 01:41:07;;;;;;;10.88;1.20;;;12.40;99.90;;;;;;4981950;28;19906;-95
2022/08/05 01:43:36;;;;;;;4.88;1.15;;;12.40;99.90;;;;;;4998791;28;20065;-93
2022/08/05 01:46:02;;;;;;;8.45;1.25;;;12.40;99.90;;;;;;4998905;28;20568;-94
2022/08/05 01:48:30;;;;;;;9.25;1.20;;;12.40;99.90;;;;;;4998442;28;20035;-94
2022/08/05 01:50:57;;;;;;;7.07;1.73;;;12.40;99.90;;;;;;4980496;28;20113;-92
2022/08/05 01:53:25;;;;;;;3.95;1.10;;;12.40;99.90;;;;;;4980609;28;20096;-94
2022/08/05 01:55:56;;;;;;;4.75;1.10;;;12.40;99.90;;;;;;4980449;28;20034;-93
2022/08/05 01:58:24;;;;;;;;;;;12.30;99.90;;;;;;4981103;28;20030;-94
2022/08/05 02:00:51;;;;;;;6.05;1.13;;;12.40;99.90;;;;;;4980406;28;20012;-94
2022/08/05 02:03:30;;;;;;;11.45;1.33;;;12.30;99.90;;;;;;4980446;28;20036;-93
2022/08/05 02:05:56;;;;;;;7.03;1.33;;;12.30;99.90;;;;;;4980925;28;20031;-94
2022/08/05 02:08:22;;;;;;;10.80;1.38;;;12.30;99.90;;;;;;4981101;28;20094;-94
2022/08/05 02:10:52;;;;;;;7.30;1.27;;;12.30;99.90;;;;;;4998576;28;20088;-95
2022/08/05 02:13:32;;;;;;;8.02;1.67;;;12.30;99.90;;;;;;4984893;28;20109;-93
2022/08/05 02:16:19;;;;;;;7.22;1.40;;;12.30;99.90;;;;;;4996161;28;20050;-92
2022/08/05 02:18:59;;;;;;;11.68;1.98;;;12.30;99.90;;;;;;4983191;28;20027;-93
2022/08/05 02:21:30;;;;;;;4.00;1.20;;;12.30;99.90;;;;;;4981010;28;20034;-93
2022/08/05 02:24:00;;;;;;;7.22;1.38;;;12.30;99.90;;;;;;4982222;28;20385;-95
2022/08/05 02:26:40;;;;;;;5.68;1.10;;;12.20;99.90;;;;;;4981111;28;20027;-93
2022/08/05 02:29:10;;;;;;;10.23;1.42;;;12.20;99.90;;;;;;4983731;28;20526;-94
2022/08/05 02:31:37;;;;;;;5.97;1.40;;;12.20;99.90;;;;;;4991526;28;20040;-92
2022/08/05 02:34:08;;;;;;;6.65;1.15;;;12.10;99.90;;;;;;5003146;28;20090;-89
2022/08/05 02:36:35;;;;;;;;;;;12.10;99.90;;;;;;5003574;28;20065;-91
2022/08/05 02:39:03;;;;;;;9.70;1.23;;;12.10;99.90;;;;;;5002782;28;19924;-93
2022/08/05 02:41:31;;;;;;;10.52;1.48;;;12.10;99.90;;;;;;4990353;28;20033;-92
2022/08/05 02:43:58;;;;;;;7.22;1.20;;;12.10;99.90;;;;;;4984136;28;20069;-92
2022/08/05 02:46:26;;;;;;;10.55;1.45;;;12.10;99.90;;;;;;4982543;28;20408;-93
2022/08/05 02:48:54;;;;;;;5.63;0.93;;;12.10;99.90;;;;;;4982787;28;20175;-93
2022/08/05 02:51:20;;;;;;;6.82;0.90;;;12.00;99.90;;;;;;4982924;28;20089;-93
2022/08/05 02:53:47;;;;;;;6.80;1.08;;;12.00;99.90;;;;;;4981410;28;20030;-92
2022/08/05 02:56:13;;;;;;;6.68;1.10;;;12.00;99.90;;;;;;4997305;28;20046;-93
2022/08/05 02:58:40;;;;;;;5.82;1.23;;;12.00;99.90;;;;;;4980695;28;20026;-93
2022/08/05 03:01:09;;;;;;;7.47;1.75;;;12.00;99.90;;;;;;4982533;28;20117;-96
2022/08/05 03:03:40;;;;;;;4.25;1.40;;;11.90;99.90;;;;;;4984636;28;20049;-94
2022/08/05 03:06:10;;;;;;;10.48;1.58;;;12.00;99.90;;;;;;4984284;28;20026;-96
2022/08/05 03:08:40;;;;;;;6.95;1.40;;;11.90;99.90;;;;;;4984330;28;20050;-94
2022/08/05 03:11:26;;;;;;;9.45;1.17;;;11.90;99.90;;;;;;4985471;28;20476;-92
2022/08/05 03:13:53;;;;;;;7.22;1.23;;;11.90;99.90;;;;;;5013778;28;20315;-91
2022/08/05 03:16:19;;;;;;;9.73;1.48;;;11.90;99.90;;;;;;5002550;28;20030;-90
2022/08/05 03:18:45;;;;;;;6.32;1.27;;;11.90;99.90;;;;;;5014216;28;20034;-92
2022/08/05 03:21:12;;;;;;;8.35;1.20;;;11.90;99.90;;;;;;5018897;28;20030;-91
2022/08/05 03:23:41;;;;;;;11.82;1.67;;;11.90;99.90;;;;;;5001760;28;20015;-90
2022/08/05 03:26:07;;;;;;;8.35;1.50;;;11.90;99.90;;;;;;5001009;28;20110;-91
2022/08/05 03:28:33;;;;;;;9.00;1.08;;;11.90;99.90;;;;;;5001325;28;20026;-89
2022/08/05 03:31:00;;;;;;;9.43;1.50;;;11.90;99.90;;;;;;5018737;28;20019;-91
2022/08/05 03:33:29;;;;;;;12.07;1.20;;;11.90;99.90;;;;;;4991959;28;20037;-92
2022/08/05 03:35:56;;;;;;;9.48;1.52;;;11.90;99.90;;;;;;4986783;28;20046;-94
2022/08/05 03:38:24;;;;;;;12.95;1.48;;;11.90;99.90;;;;;;4982952;28;20085;-93
2022/08/05 03:40:51;;;;;;;9.80;1.08;;;11.80;99.90;;;;;;4999116;28;20083;-93
2022/08/05 03:43:17;;;;;;;13.13;1.50;;;11.80;99.90;;;;;;4981171;28;20053;-91
2022/08/05 03:45:43;;;;;;;8.38;1.25;;;11.80;99.90;;;;;;4981359;28;20030;-93
2022/08/05 03:48:08;;;;;;;6.28;1.10;;;11.80;99.90;;;;;;4998079;28;20023;-92
2022/08/05 03:51:03;;;;;;;6.63;1.00;;;11.80;99.90;;;;;;4979617;28;20026;-92
2022/08/05 03:53:40;;;;;;;7.85;1.00;;;11.70;99.90;;;;;;4959783;28;20034;-94
2022/08/05 03:56:16;;;;;;;3.08;0.90;;;11.60;99.90;;;;;;4979969;28;20074;-93
2022/08/05 03:58:45;;;;;;;6.50;1.13;;;11.60;99.90;;;;;;4997454;28;20105;-91
2022/08/05 04:01:13;;;;;;;10.82;1.85;;;11.60;99.90;;;;;;4980105;28;20022;-92
2022/08/05 04:03:41;;;;;;;5.20;1.08;;;11.50;99.90;;;;;;4980761;28;20502;-93
2022/08/05 04:06:07;;;;;;;10.10;1.33;;;11.50;99.90;;;;;;4979764;28;20554;-92
2022/08/05 04:08:35;;;;;;;12.82;1.30;;;11.50;99.90;;;;;;4979372;28;20491;-92
2022/08/05 04:11:03;;;;;;;9.80;1.35;;;11.40;99.90;;;;;;4979979;28;20042;-92
2022/08/05 04:13:30;;;;;;;4.05;0.85;;;11.40;99.90;;;;;;4984984;28;20025;-92
2022/08/05 04:15:56;;;;;;;8.55;1.50;;;11.40;99.90;;;;;;4995910;28;20106;-92
2022/08/05 04:18:26;;;;;;;11.02;1.70;;;11.40;99.90;;;;;;4991331;28;20022;-92
2022/08/05 04:20:53;;;;;;;6.85;1.17;;;11.40;99.90;;;;;;4999244;28;20444;-93
2022/08/05 04:23:21;;;;;;;11.85;1.20;;;11.30;99.90;;;;;;4999386;28;20026;-94
2022/08/05 04:25:47;;;;;;;13.93;1.48;;;11.30;99.90;;;;;;4979551;28;20026;-93
2022/08/05 04:28:13;;;;;;;7.10;1.05;;;11.40;99.90;;;;;;4979272;28;20026;-94
2022/08/05 04:30:40;;;;;;;9.38;1.30;;;11.40;99.90;;;;;;4979154;28;20034;-92
2022/08/05 04:33:05;;;;;;;12.57;1.50;;;11.40;99.90;;;;;;4978795;28;20479;-94
2022/08/05 04:35:31;;;;;;;9.75;1.60;;;11.40;99.90;;;;;;4996190;28;20034;-93
2022/08/05 04:37:57;;;;;;;14.10;1.27;;;11.40;99.90;;;;;;4978980;28;20503;-94
2022/08/05 04:40:23;;;;;;;7.30;1.05;;;11.40;99.90;;;;;;4979143;28;20034;-93
2022/08/05 04:42:48;;;;;;;8.15;1.70;;;11.40;99.90;;;;;;4979316;28;20030;-90
2022/08/05 04:45:14;;;;;;;6.38;1.30;;;11.40;99.90;;;;;;4978688;28;20117;-93
2022/08/05 04:47:40;;;;;;;14.25;1.92;;;11.40;99.90;;;;;;4978599;28;20113;-93
2022/08/05 04:50:06;;;;;;;5.88;1.75;;;11.50;99.90;;;;;;4977849;28;20037;-94
2022/08/05 04:52:32;;;;;;;5.93;1.00;;;11.40;99.90;;;;;;4978584;28;20080;-93
2022/08/05 04:54:57;;;;;;;8.55;1.52;;;11.50;99.90;;;;;;4978444;28;20026;-93
2022/08/05 04:57:24;;;;;;;7.22;1.25;;;11.50;99.90;;;;;;4995326;28;20045;-91
2022/08/05 04:59:50;;;;;;;6.50;1.55;;;11.50;99.90;;;;;;4995853;28;20034;-93
2022/08/05 05:02:15;;;;;;;8.88;1.30;;;11.50;99.90;;;;;;4978635;28;20412;-93
2022/08/05 05:04:41;;;;;;;8.50;2.50;;;11.50;99.90;;;;;;4978960;28;20022;-94
2022/08/05 05:07:07;;;;;;;9.73;1.40;;;11.50;99.90;;;;;;4978627;28;20482;-93
2022/08/05 05:09:32;;;;;;;10.45;1.40;;;11.50;99.90;;;;;;4978437;28;20034;-93
2022/08/05 05:11:58;;;;;;;9.98;1.83;;;11.60;99.90;;;;;;4995642;28;20065;-92
2022/08/05 05:14:24;;;;;;;12.70;1.40;;;11.60;99.90;;;;;;4978292;28;20058;-92
2022/08/05 05:16:50;;;;;;;8.27;1.38;;;11.60;99.90;;;;;;4995500;28;20066;-93
2022/08/05 05:19:15;;;;;;;10.32;1.02;;;11.70;99.90;;;;;;4978060;28;20094;-93
2022/08/05 05:21:41;;;;;;;13.57;1.45;;;11.70;99.90;;;;;;4978375;28;20022;-94
2022/08/05 05:24:07;;;;;;;9.32;1.20;;;11.70;99.90;;;;;;4978214;28;20110;-93
2022/08/05 05:26:32;;;;;;;5.75;1.23;;;11.70;99.90;;;;;;4977965;28;20480;-91
2022/08/05 05:28:58;;;;;;;7.32;1.20;;;11.80;99.90;;;;;;4978143;28;20018;-92
2022/08/05 05:31:24;;;;;;;12.60;1.38;;;11.80;99.90;;;;;;4977865;28;20066;-92
2022/08/05 05:33:50;;;;;;;12.13;1.67;;;11.80;99.90;;;;;;4977911;28;20031;-92
2022/08/05 05:36:15;;;;;;;12.65;1.30;;;11.90;99.90;;;;;;4962292;28;20041;-95
2022/08/05 05:38:41;;;;;;;7.47;1.20;;;11.90;99.90;;;;;;4996025;28;20022;-92
2022/08/05 05:41:07;;;;;;;10.43;1.17;;;11.90;99.90;;;;;;4978925;28;20026;-93
2022/08/05 05:43:33;;;;;;;7.60;1.27;;;12.00;99.90;;;;;;4978449;28;20101;-91
2022/08/05 05:46:00;;;;;;;5.40;1.60;;;12.00;99.90;;;;;;4978033;28;20019;-93
2022/08/05 05:48:26;;;;;;;7.18;0.98;;;12.00;99.90;;;;;;4995833;28;20046;-94
2022/08/05 05:50:51;;;;;;;5.10;1.17;;;12.00;99.90;;;;;;4979702;28;20081;-94
2022/08/05 05:53:17;;;;;;;4.90;1.70;;;12.00;99.90;;;;;;4995188;28;20388;-93
2022/08/05 05:55:43;;;;;;;8.32;1.50;;;12.00;99.90;;;;;;4977607;28;20026;-92
2022/08/05 05:58:08;;;;;;;9.65;1.25;;;12.00;99.90;;;;;;4977945;28;20037;-93
2022/08/05 06:00:34;;;;;;;3.35;1.08;;;12.00;99.90;;;;;;4979197;28;20033;-94
2022/08/05 06:03:02;;;;;;;5.25;0.93;;;12.00;99.90;;;;;;4981071;28;20034;-93
2022/08/05 06:05:28;;;;;;;4.68;0.90;;;12.00;99.90;;;;;;4983012;28;20030;-93
2022/08/05 06:07:53;;;;;;;8.30;0.80;;;12.10;99.90;;;;;;4986786;28;20037;-94
2022/08/05 06:10:19;;;;;;;6.65;0.90;;;12.10;99.90;;;;;;4981528;28;20027;-93
2022/08/05 06:12:45;;;;;;;5.75;1.48;;;12.20;99.90;;;;;;4981187;28;20093;-94
2022/08/05 06:15:14;;;;;;;5.88;0.98;;;12.20;99.90;;;;;;4993082;28;20032;-91
2022/08/05 06:17:39;;;;;;;4.75;0.70;;;12.30;99.90;;;;;;4989259;28;20030;-94
2022/08/05 06:20:06;;;;;;;5.45;1.10;;;12.30;99.90;;;;;;5005380;28;20018;-94
2022/08/05 06:22:33;;;;;;;3.28;0.82;;;12.30;99.90;;;;;;4982497;28;20034;-95
2022/08/05 06:25:12;;;;;;;2.22;0.70;;;12.30;99.90;;;;;;4986297;28;20023;-92
2022/08/05 06:27:37;;;;;;;5.20;1.05;;;12.30;99.90;;;;;;4991497;28;20030;-93
2022/08/05 06:30:04;;;;;;;4.60;0.90;;;12.20;99.90;;;;;;4982634;28;20058;-94
2022/08/05 06:32:30;;;;;;;5.45;0.75;;;12.20;99.90;;;;;;4981056;28;20121;-91
2022/08/05 06:34:59;;;;;;;3.83;0.63;;;12.20;99.90;;;;;;4981175;28;20540;-94
2022/08/05 06:37:29;;;;;;;3.65;0.70;;;12.20;99.90;;;;;;4980124;28;20042;-93
2022/08/05 06:39:55;;;;;;;4.53;0.73;;;12.20;99.90;;;;;;4984304;28;20030;-92
2022/08/05 06:42:21;;;;;;;5.95;0.98;;;12.10;99.90;;;;;;4981196;28;20038;-91
2022/08/05 06:44:46;;;;;;;3.28;0.60;;;12.10;99.90;;;;;;4998311;28;20511;-92
2022/08/05 06:47:12;;;;;;;1.13;0.75;;;12.00;99.90;;;;;;4989914;28;20038;-93
2022/08/05 06:49:39;;;;;;;5.82;0.90;;;12.10;99.90;;;;;;4988859;28;20100;-92
2022/08/05 06:52:04;;;;;;;5.13;1.10;;;12.10;99.90;;;;;;4993288;28;20041;-90
2022/08/05 06:54:30;;;;;;;3.97;0.93;;;12.20;99.90;;;;;;5002508;28;20014;-91
2022/08/05 06:56:56;;;;;;;5.30;0.73;;;12.30;99.90;;;;;;5002217;28;20030;-90
2022/08/05 06:59:21;;;;;;;3.13;0.82;;;12.50;99.90;;;;;;4993506;28;20031;-92
2022/08/05 07:01:47;;;;;;;3.50;0.80;;;12.50;99.90;;;;;;4986559;28;20474;-92
2022/08/05 07:04:13;;;;;;;1.33;0.75;;;12.60;99.90;;;;;;4985127;28;20045;-94
2022/08/05 07:06:38;;;;;;;0.60;0.43;;;12.70;99.90;;;;;;4983555;28;20205;-92
2022/08/05 07:09:04;;;;;;;2.35;0.50;;;12.70;99.90;;;;;;4981984;28;20037;-93
2022/08/05 07:11:32;;;;;;;3.15;0.60;;;12.70;99.90;;;;;;4981487;28;20493;-91
2022/08/05 07:16:48;;;;;;;2.03;0.63;;;12.80;99.90;;;;;;5001715;28;20108;-93
2022/08/05 07:19:21;;;;;;;1.70;0.30;;;12.80;99.90;;;;;;4987619;28;20041;-92
2022/08/05 07:21:50;;;;;;;1.75;0.75;;;12.80;99.90;;;;;;4991274;28;20034;-93
2022/08/05 07:24:18;;;;;;;3.20;0.60;;;12.80;99.90;;;;;;4993619;28;20026;-92
2022/08/05 07:26:44;;;;;;;2.40;0.85;;;12.80;99.90;;;;;;4996283;28;20098;-92
2022/08/05 07:29:10;;;;;;;2.95;0.65;;;12.90;99.90;;;;;;4995525;28;20036;-91
2022/08/05 07:31:37;;;;;;;2.92;0.73;;;13.00;99.90;;;;;;4994500;28;20094;-92
2022/08/05 07:34:03;;;;;;;2.10;0.55;;;13.00;99.90;;;;;;4989264;28;20042;-91
2022/08/05 07:36:29;;;;;;;1.38;0.90;;;13.00;99.90;;;;;;4985505;28;20073;-92
2022/08/05 07:38:55;;;;;;;2.88;0.90;;;12.90;99.90;;;;;;4970298;28;20388;-92
2022/08/05 07:41:23;;;;;;;1.23;0.70;;;12.90;99.90;;;;;;4991491;28;20029;-93
2022/08/05 07:43:56;;;;;;;4.30;0.90;;;13.00;99.90;;;;;;4982373;28;20043;-92
2022/08/05 07:46:30;;;;;;;1.48;0.90;;;13.00;99.90;;;;;;4997850;28;20046;-92
2022/08/05 07:48:58;;;;;;;3.20;0.85;;;13.10;99.90;;;;;;4990691;28;20077;-90
2022/08/05 07:51:24;;;;;;;1.83;1.00;;;13.10;99.90;;;;;;4982518;28;20026;-91
2022/08/05 07:53:52;;;;;;;3.13;1.17;;;13.20;99.90;;;;;;4988935;28;20057;-94
2022/08/05 07:56:18;;;;;;;4.22;0.73;;;13.40;99.90;;;;;;4954827;28;20472;-93
2022/08/05 07:58:43;;;;;;;1.92;0.60;;;13.50;99.90;;;;;;4988728;28;20045;-94
2022/08/05 08:01:09;;;;;;;2.55;0.73;;;13.60;99.90;;;;;;4996165;28;20078;-93
2022/08/05 08:03:38;;;;;;;3.65;1.00;;;13.70;99.90;;;;;;4996262;28;20129;-93
2022/08/05 08:06:04;;;;;;;3.20;0.80;;;13.80;99.90;;;;;;4990039;28;20030;-94
2022/08/05 08:08:30;;;;;;;2.75;0.82;;;13.80;99.90;;;;;;4990919;28;20084;-94
2022/08/05 08:10:57;;;;;;;5.63;1.23;;;14.00;99.90;;;;;;4988335;28;20038;-94
2022/08/05 08:13:25;;;;;;;3.28;1.00;;;14.00;99.90;;;;;;4982251;28;20030;-92
2022/08/05 08:15:54;;;;;;;1.88;0.70;;;14.20;99.90;;;;;;4982471;28;20027;-91
2022/08/05 08:18:20;;;;;;;2.60;0.73;;;14.30;99.90;;;;;;4984911;28;20050;-94
2022/08/05 08:20:48;;;;;;;4.32;0.85;;;14.30;99.90;;;;;;5000030;28;20029;-94
2022/08/05 08:23:17;;;;;;;1.08;0.60;;;14.30;99.90;;;;;;4988563;28;20103;-94
2022/08/05 08:25:48;;;;;;;0.80;0.50;;;14.30;99.90;;;;;;4981349;28;20567;-92
2022/08/05 08:28:19;;;;;;;2.35;0.63;;;14.30;99.90;;;;;;4987816;28;20026;-95
2022/08/05 08:30:45;;;;;;;;;;;14.30;99.90;;;;;;4985155;28;20030;-95
2022/08/05 08:33:21;;;;;;;1.17;0.68;;;14.30;99.90;;;;;;4980441;28;20392;-95
2022/08/05 08:35:49;;;;;;;4.30;1.25;;;14.30;99.90;;;;;;4998501;28;20038;-93
2022/08/05 08:38:15;;;;;;;2.63;0.50;;;14.30;99.90;;;;;;4964261;28;20061;-94
2022/08/05 08:40:42;;;;;;;1.85;0.63;;;14.40;99.90;;;;;;4982453;28;20500;-94
2022/08/05 08:43:13;;;;;;;1.50;0.60;;;14.50;99.90;;;;;;4983802;28;20136;-93
2022/08/05 08:45:39;;;;;;;2.47;0.80;;;14.60;99.90;;;;;;4965802;28;20484;-95
2022/08/05 08:48:11;;;;;;;2.10;0.68;;;14.60;99.90;;;;;;4979737;28;20026;-94
2022/08/05 08:50:45;;;;;;;1.13;0.73;;;14.70;99.90;;;;;;4979548;28;20116;-93
2022/08/05 08:53:14;;;;;;;5.28;1.17;;;14.90;99.90;;;;;;4978436;28;20034;-94
2022/08/05 08:55:40;;;;;;;2.47;0.82;;;14.90;99.90;;;;;;4979886;28;20126;-93
2022/08/05 08:58:07;;;;;;;3.85;1.02;;;14.80;99.90;;;;;;4979889;28;20050;-94
2022/08/05 09:00:34;;;;;;;1.58;0.63;;;14.80;99.90;;;;;;4979543;28;20109;-93
2022/08/05 09:03:03;;;;;;;3.75;0.95;;;14.90;99.90;;;;;;4979235;28;20081;-96
2022/08/05 09:05:29;;;;;;;1.30;0.50;;;15.00;99.90;;;;;;4981199;28;20057;-94
2022/08/05 09:07:56;;;;;;;3.22;0.80;;;15.10;99.90;;;;;;4979463;28;20030;-95
2022/08/05 09:10:22;;;;;;;3.95;0.80;;;15.10;99.90;;;;;;4979292;28;20026;-94
2022/08/05 09:12:48;;;;;;;3.40;0.68;;;15.20;99.90;;;;;;4979309;28;20073;-92
2022/08/05 09:15:14;;;;;;;1.65;0.52;;;15.30;99.90;;;;;;4979503;28;20034;-92
2022/08/05 09:17:40;;;;;;;4.03;0.68;;;15.30;99.90;;;;;;4979330;28;20105;-93
2022/08/05 09:20:07;;;;;;;3.92;0.85;;;15.40;99.90;;;;;;4980494;28;20057;-93
2022/08/05 09:23:09;;;;;;;4.10;0.75;;;15.40;99.90;;;;;;4983285;28;20073;-92
2022/08/05 09:25:37;;;;;;;1.25;0.60;;;15.40;99.90;;;;;;4986190;28;20069;-92
2022/08/05 09:28:22;;;;;;;4.10;0.82;;;15.50;99.90;;;;;;4982640;28;20158;-92
2022/08/05 09:31:05;;;;;;;4.03;0.90;;;15.60;99.90;;;;;;4981115;28;20109;-95
2022/08/05 09:33:31;;;;;;;4.50;0.75;;;15.80;99.90;;;;;;4982926;28;20034;-93
2022/08/05 09:36:07;;;;;;;2.42;0.88;;;15.90;99.90;;;;;;4998852;28;20045;-94
2022/08/05 09:38:33;;;;;;;8.30;1.20;;;15.90;99.90;;;;;;4981568;28;20035;-94
2022/08/05 09:41:04;;;;;;;1.27;0.50;;;16.00;99.90;;;;;;4983113;28;20022;-93
2022/08/05 09:43:33;;;;;;;4.28;1.00;;;15.90;99.90;;;;;;4982708;28;20051;-95
2022/08/05 09:45:59;;;;;;;2.97;0.75;;;16.00;99.90;;;;;;4982178;28;20065;-91
2022/08/05 09:48:28;;;;;;;2.88;0.70;;;16.10;99.90;;;;;;4982150;28;20030;-92
2022/08/05 09:51:05;;;;;;;4.35;0.80;;;16.10;99.90;;;;;;4981791;28;20073;-93
2022/08/05 09:53:48;;;;;;;4.85;1.20;;;16.20;99.40;;;;;;4983835;28;20035;-92
2022/08/05 09:56:25;;;;;;;4.53;1.20;;;16.20;99.10;;;;;;4990093;28;20492;-93
2022/08/05 09:58:59;;;;;;;1.65;0.70;;;16.50;98.70;;;;;;4981743;28;20121;-92
2022/08/05 10:01:26;;;;;;;3.58;1.17;;;16.60;97.80;;;;;;4987425;28;20038;-91
2022/08/05 10:04:03;;;;;;;6.85;1.05;;;16.60;97.50;;;;;;4982744;28;20025;-91
2022/08/05 10:06:29;;;;;;;4.32;0.85;;;16.50;97.10;;;;;;4985166;28;20030;-92
2022/08/05 10:09:14;;;;;;;2.83;0.77;;;16.40;96.90;;;;;;4987418;28;20026;-90
2022/08/05 10:11:41;;;;;;;4.90;0.85;;;16.40;97.20;;;;;;4982221;28;20037;-92
2022/08/05 10:14:28;;;;;;;5.28;1.35;;;16.40;97.20;;;;;;4985428;28;20033;-91
2022/08/05 10:16:55;;;;;;;5.53;0.88;;;16.50;97.20;;;;;;4991970;28;20043;-92
2022/08/05 10:19:22;;;;;;;7.75;2.33;;;16.80;97.20;;;;;;4982528;28;20037;-93
2022/08/05 10:21:49;;;;;;;5.72;1.20;;;17.10;97.30;;;;;;4998173;28;20057;-93
2022/08/05 10:24:19;;;;;;;4.07;1.40;;;17.10;96.10;;;;;;4989649;28;20098;-92
2022/08/05 10:26:48;;;;;;;5.18;1.73;;;17.10;96.10;;;;;;4991712;28;20034;-93
2022/08/05 10:29:14;;;;;;;5.65;1.05;;;17.10;96.60;;;;;;4998825;28;20027;-92
2022/08/05 10:31:40;;;;;;;3.08;0.60;;;17.10;97.20;;;;;;4985266;28;20026;-91
2022/08/05 10:34:08;;;;;;;4.93;1.17;;;17.00;97.90;;;;;;4988331;28;20037;-93
2022/08/05 10:36:39;;;;;;;5.55;0.75;;;17.00;98.60;;;;;;4986858;28;20088;-92
2022/08/05 10:39:17;;;;;;;4.47;1.00;;;17.10;98.90;;;;;;4982571;28;20058;-94
2022/08/05 10:42:06;;;;;;;4.25;1.10;;;17.30;99.30;;;;;;4981568;28;20030;-93
2022/08/05 10:44:33;;;;;;;3.38;0.63;;;17.40;99.10;;;;;;4980940;28;20121;-92
2022/08/05 10:47:10;;;;;;;2.55;0.77;;;17.70;98.60;;;;;;4979792;28;20035;-92
2022/08/05 10:49:59;;;;;;;5.10;0.88;;;17.90;97.90;;;;;;4981428;28;20106;-92
2022/08/05 10:52:40;;;;;;;0.87;0.43;;;18.10;96.90;;;;;;4980471;28;20031;-93
2022/08/05 10:55:09;;;;;;;2.30;0.50;;;18.50;95.90;;;;;;4980082;28;20282;-92
2022/08/05 10:57:40;;;;;;;3.65;0.68;;;18.50;94.40;;;;;;4980065;28;20507;-93
2022/08/05 11:00:17;;;;;;;1.55;0.70;;;18.40;92.60;;;;;;4980784;28;20109;-91
2022/08/05 11:02:58;;;;;;;3.85;0.52;;;18.20;91.40;;;;;;4980684;28;20551;-93
2022/08/05 11:05:24;;;;;;;2.47;0.65;;;17.90;91.70;;;;;;4981908;28;20172;-92
2022/08/05 11:08:09;;;;;;;2.95;0.70;;;17.70;92.20;;;;;;4980775;28;20023;-92
2022/08/05 11:10:41;;;;;;;2.97;0.85;;;17.40;92.50;;;;;;4980783;28;20026;-91
2022/08/05 11:13:07;;;;;;;6.78;1.10;;;17.40;92.90;;;;;;4982837;28;20240;-91
2022/08/05 11:15:42;;;;;;;4.47;1.20;;;17.30;92.60;;;;;;4986491;28;20026;-92
2022/08/05 11:18:27;;;;;;;3.65;0.82;;;17.40;92.80;;;;;;4987444;28;20045;-91
2022/08/05 11:20:53;;;;;;;3.88;0.93;;;17.60;92.60;;;;;;5002564;28;20022;-91
2022/08/05 11:23:51;;;;;;;5.35;0.90;;;17.90;92.40;;;;;;5002215;28;20038;-91
2022/08/05 11:26:20;;;;;;;2.40;1.10;;;18.10;91.80;;;;;;4991378;28;20098;-92
2022/08/05 11:28:51;;;;;;;5.35;0.60;;;18.50;91.00;;;;;;4991189;28;20022;-93
2022/08/05 11:31:17;;;;;;;3.53;0.80;;;18.80;90.60;;;;;;4992697;28;20023;-93
2022/08/05 11:33:50;;;;;;;3.85;0.95;;;19.00;89.70;;;;;;4993662;28;20062;-92
2022/08/05 11:36:18;;;;;;;7.53;1.00;;;19.10;87.50;;;;;;4993877;28;20034;-92
2022/08/05 11:38:43;;;;;;;2.60;0.90;;;19.10;86.30;;;;;;4991281;28;20053;-92
2022/08/05 11:41:26;;;;;;;3.40;0.77;;;19.00;85.60;;;;;;4988147;28;20026;-93
2022/08/05 11:44:05;;;;;;;3.85;0.90;;;18.80;84.90;;;;;;4985867;28;20055;-94
2022/08/05 11:46:39;;;;;;;4.80;1.40;;;18.80;85.60;;;;;;4991092;28;20026;-93
2022/08/05 11:49:10;;;;;;;3.95;0.80;;;19.00;86.10;;;;;;4999131;28;20085;-94
2022/08/05 11:51:36;;;;;;;3.33;0.95;;;19.20;85.80;;;;;;4989371;28;20050;-92
2022/08/05 11:54:02;;;;;;;4.82;0.90;;;19.30;84.30;;;;;;4980704;28;20037;-94
2022/08/05 11:56:51;;;;;;;2.97;0.90;;;19.50;83.00;;;;;;4980391;28;20030;-94
2022/08/05 11:59:25;;;;;;;2.50;0.88;;;19.80;81.90;;;;;;4980889;28;20033;-93
2022/08/05 12:01:55;;;;;;;2.08;0.80;;;20.10;80.50;;;;;;4983220;28;20032;-92
2022/08/05 12:04:21;;;;;;;2.40;0.80;;;20.40;78.80;;;;;;4981233;28;20029;-94
2022/08/05 12:06:47;;;;;;;2.83;0.60;;;20.70;78.30;;;;;;4979077;28;20062;-93
2022/08/05 12:09:27;;;;;;;3.78;0.70;;;20.70;75.30;;;;;;4979530;28;20030;-92
2022/08/05 12:11:53;;;;;;;;;;;20.70;73.80;;;;;;4981194;28;20030;-89
2022/08/05 12:14:19;;;;;;;3.00;1.02;;;20.90;73.40;;;;;;4980328;28;19979;-93
2022/08/05 12:16:47;;;;;;;2.33;0.70;;;21.10;71.90;;;;;;4979838;28;20136;-93
2022/08/05 12:19:14;;;;;;;3.30;1.08;;;21.20;71.60;;;;;;4980291;28;20506;-93
2022/08/05 12:21:48;;;;;;;3.58;0.70;;;21.30;71.30;;;;;;4979578;28;20029;-91
2022/08/05 12:24:16;;;;;;;3.67;0.68;;;21.30;70.50;;;;;;4980710;28;20026;-93
2022/08/05 12:26:46;;;;;;;2.53;0.60;;;21.30;70.00;;;;;;4989716;28;20106;-92
2022/08/05 12:29:20;;;;;;;2.78;0.70;;;21.20;69.20;;;;;;4983642;28;20026;-91
2022/08/05 12:31:51;;;;;;;3.60;0.70;;;21.00;69.00;;;;;;4980897;28;20042;-92
2022/08/05 12:34:18;;;;;;;4.35;0.50;;;20.80;69.00;;;;;;4980331;28;20033;-92
2022/08/05 12:36:45;;;;;;;3.70;1.05;;;20.80;69.30;;;;;;4986157;28;20046;-93
2022/08/05 12:39:12;;;;;;;3.70;0.70;;;20.80;69.20;;;;;;4986506;28;20026;-91
2022/08/05 12:41:40;;;;;;;4.78;0.40;;;21.00;68.90;;;;;;4986198;28;20483;-92
2022/08/05 12:44:10;;;;;;;2.22;0.60;;;21.20;67.90;;;;;;4988059;28;20115;-93
2022/08/05 12:46:37;;;;;;;4.85;0.45;;;21.40;66.10;;;;;;4986021;28;20026;-93
2022/08/05 12:49:13;;;;;;;1.33;0.45;;;21.50;65.60;;;;;;4982417;28;20034;-90
2022/08/05 12:51:45;;;;;;;1.27;0.40;;;21.70;65.20;;;;;;4978838;28;20022;-92
2022/08/05 12:54:16;;;;;;;2.70;0.63;;;21.90;64.60;;;;;;4979744;28;20038;-91
2022/08/05 12:56:46;;;;;;;3.33;0.60;;;22.10;64.50;;;;;;4980934;28;20499;-91
2022/08/05 12:59:20;;;;;;;2.65;0.52;;;22.30;64.70;;;;;;4979023;28;20117;-92
2022/08/05 13:02:00;;;;;;;1.63;0.43;;;22.50;64.40;;;;;;4978462;28;20026;-92